ENSG

Sogndal Airport

Sogndal, Norway
METAR ENSG 221750Z 26008KT CAVOK 18/04 Q1020 RMK WIND 3806FT 27010KT
Observed Flight Rules
May-22 @ 17:50 UTC (10 hours ago) Visual Flight Rules
Wind Visibility Clouds
260° at 8 knots 10,000+ meters
  • Clear skies
Temperatures Readings
Current 18°C / 64°F
Dewpoint 4°C / 39°F
Humidity 40%
Altimeter 30.12" Hg
Pressure 1020 hPa
Elevation 497
METAR ENSG 221750Z 26008KT CAVOK 18/04 Q1020 RMK WIND 3806FT 27010KT
Observed Flight Rules
May-22 @ 17:50 UTC
(10 hours ago)
VFR
Wind Visibility
260° at 8 knots 10,000+ meters
Clouds
  • Clear skies
Temperature Dewpoint
18°C / 64°F 4°C / 39°F
Humidity Altimeter Pressure
40% 30.12" Hg 1020 hPa